Aérodrome :
LOGIN :

S'inscrire | Disclaimer

   EN    FR    IT 

 










Légende :    VFR   VFR Marginal   IFR   IFR Intensif   IFR Très Intensif
Visi : 
Plafond : 
>= 8 km
>= 3000ft
5 à 8 km
1000 à 3000 ft
1500m à 5 km
500 à 1000 ft
800 à 1500m
200 à 500 ft
< 800m
< 200 ft
Symboles :   Orages  Brouillard  Fortes neiges  Fortes précipitations  Vent > 20 kt
SIGMETs :   Divers  Orages  Givrage  Turbulence  Onde Orograph.  Cendres Volcan.






- Altitude de l'aérodrome : 526 ft
- Code IATA : LTN


EGGW - London Luton

DERNIER METAR :
  • 022150Z AUTO VRB01KT 9999 NCD 15/05 Q1014

METARs EXPIRÉS :
  • 022120Z AUTO 04001KT 9999 NCD 15/05 Q1014
  • 022050Z AUTO 04001KT 9999 NCD 16/05 Q1014
  • 022020Z AUTO 36003KT 9999 NCD 18/04 Q1015
  • 021950Z AUTO VRB03KT 9999 NCD 19/04 Q1015
  • 021920Z AUTO 35005KT 9999 NCD 20/05 Q1015

TAF TAF EGGW
Valide du 02 à 18h jusqu'au 03 à 18h UTC


021658Z 0218/0318 VRB05KT CAVOK
BECMG 0302/0305 FEW015 BKN035
TEMPO 0302/0318 7000 RA BKN010
PROB30
TEMPO 0303/0318 BKN008
ATIS : +44 1582 395 204



MET'MAP, la Météo Aéronautique d'un coup d'oeil ! - Copyright ORBIFLY Décembre 2007 - Disclaimer

ORBIFLY MET'MAP TEAM :

Programmation & Développement : Alexandra Zaïnal
Sur une idée originale de : Baudouin d'Aumeries
Assistance à la programmation : Marc-Olivier Méhu
Soutien technique & logistique : Manuel Goepfert

Contact : metmap@orbifly.com




SOURCES & CREDITS :

   NOAA